Coaraci, Brazil
Current Conditions -  °F | °C
As of 1:00 PM on Monday 24 Nov 2014 (Local Time) from SBIL Reporting Station
Scattered Clouds Scattered Clouds  
Wind Chill: 84°   Ceiling: Unl
Heat Index: 92°   Visibility: 6mi
Dew Point: 75°   Wind: 12mph
Humidity: 74%   Direction: 40°NE
Pressure: 29.97"   Gusts: NA
Location:  14.64°S, 39.55°W
Report Text: SBIL 241600Z 04010KT 9999 SCT025 29/24 Q1015
Loading
Personal Weather Stations






























Interactive Weather Map New forecast layout! Learn more

10-Day Weather Forecast

Advertisements
Track Severe Weather on mobile